createdAt,value
2022-12-25T00:00:00.421Z,6.10
2022-12-25T00:02:29.821Z,6.10
2022-12-25T00:04:56.939Z,6.10
2022-12-25T00:07:24.127Z,6.10
2022-12-25T00:09:51.274Z,6.10
2022-12-25T00:12:19.401Z,6.10
2022-12-25T00:14:46.508Z,6.10
2022-12-25T00:17:13.680Z,6.10
2022-12-25T00:19:40.838Z,6.10
2022-12-25T00:22:08.011Z,6.10
2022-12-25T00:24:34.967Z,6.20
2022-12-25T00:27:01.993Z,6.10
2022-12-25T00:29:28.990Z,6.20
2022-12-25T00:31:56.028Z,6.20
2022-12-25T00:34:24.215Z,6.20
2022-12-25T00:36:51.902Z,6.20
2022-12-25T00:39:19.166Z,6.20
2022-12-25T00:42:04.512Z,6.20
2022-12-25T00:44:31.501Z,6.20
2022-12-25T00:46:58.515Z,6.10
2022-12-25T00:49:25.512Z,6.10
2022-12-25T00:51:53.177Z,6.20
2022-12-25T00:54:21.153Z,6.20
2022-12-25T00:56:48.260Z,6.20
2022-12-25T00:59:15.333Z,6.30
2022-12-25T01:01:42.713Z,6.30
2022-12-25T01:04:11.141Z,6.30
2022-12-25T01:06:38.772Z,6.30
2022-12-25T01:09:24.819Z,6.20
2022-12-25T01:11:51.904Z,6.20
2022-12-25T01:14:19.167Z,6.20
2022-12-25T01:16:46.172Z,6.20
2022-12-25T01:19:13.267Z,6.30
2022-12-25T01:21:40.324Z,6.30
2022-12-25T01:24:08.017Z,6.30
2022-12-25T01:26:35.159Z,6.30
2022-12-25T01:29:02.705Z,6.30
2022-12-25T01:31:29.708Z,6.20
2022-12-25T01:33:56.800Z,6.20
2022-12-25T01:36:26.811Z,6.20
2022-12-25T01:38:54.906Z,6.20
2022-12-25T01:41:24.375Z,6.20
2022-12-25T01:44:12.379Z,6.20
2022-12-25T01:46:39.475Z,6.20
2022-12-25T01:49:16.925Z,6.20
2022-12-25T01:52:06.102Z,6.20
2022-12-25T01:54:42.177Z,6.20
2022-12-25T01:57:19.299Z,6.10
2022-12-25T01:59:46.954Z,6.10
2022-12-25T02:02:14.846Z,6.10
2022-12-25T02:04:53.835Z,6.20
2022-12-25T02:07:23.693Z,6.20
2022-12-25T02:09:51.916Z,6.20
2022-12-25T02:12:28.027Z,6.10
2022-12-25T02:15:04.930Z,6.10
2022-12-25T02:17:56.685Z,6.10
2022-12-25T02:21:14.757Z,6.10
2022-12-25T02:24:18.032Z,6.20
2022-12-25T02:27:14.590Z,6.20
2022-12-25T02:29:50.937Z,6.20
2022-12-25T02:33:15.407Z,6.20
2022-12-25T02:35:44.935Z,6.20
2022-12-25T02:38:18.269Z,6.20
2022-12-25T02:40:56.223Z,6.20
2022-12-25T02:43:56.707Z,6.20
2022-12-25T02:46:43.890Z,6.20
2022-12-25T02:49:33.094Z,6.20
2022-12-25T02:52:25.980Z,6.20
2022-12-25T02:55:20.627Z,6.10
2022-12-25T02:58:09.443Z,6.10
2022-12-25T03:01:00.240Z,6.10
2022-12-25T03:03:49.942Z,6.10
2022-12-25T03:06:37.118Z,6.00
2022-12-25T03:09:25.869Z,5.90
2022-12-25T03:12:02.682Z,5.90
2022-12-25T03:14:48.287Z,5.90
2022-12-25T03:17:16.810Z,5.80
2022-12-25T03:20:02.428Z,5.70
2022-12-25T03:22:50.837Z,5.70
2022-12-25T03:25:37.934Z,5.60
2022-12-25T03:28:06.261Z,5.60
2022-12-25T03:31:11.499Z,5.60
2022-12-25T03:34:14.922Z,5.60
2022-12-25T03:37:08.310Z,5.60
2022-12-25T03:40:23.775Z,5.60
2022-12-25T03:43:17.271Z,5.60
2022-12-25T03:46:09.791Z,5.60
2022-12-25T03:49:01.470Z,5.60
2022-12-25T03:51:55.178Z,5.60
2022-12-25T03:54:47.399Z,5.60
2022-12-25T03:57:33.855Z,5.70
2022-12-25T04:00:19.841Z,5.70
2022-12-25T04:03:05.341Z,5.70
2022-12-25T04:05:51.083Z,5.70
2022-12-25T04:08:36.667Z,5.60
2022-12-25T04:11:30.069Z,5.60
2022-12-25T04:14:15.960Z,5.50
2022-12-25T04:17:02.778Z,5.40
2022-12-25T04:19:48.118Z,5.40
2022-12-25T04:22:34.122Z,5.30
2022-12-25T04:25:19.775Z,5.30
2022-12-25T04:28:05.230Z,5.30
2022-12-25T04:30:52.455Z,5.30
2022-12-25T04:33:37.945Z,5.30
2022-12-25T04:36:13.840Z,5.30
2022-12-25T04:38:41.750Z,5.30
2022-12-25T04:41:11.785Z,5.40
2022-12-25T04:43:38.787Z,5.40
2022-12-25T04:46:06.504Z,5.40
2022-12-25T04:48:35.688Z,5.50
2022-12-25T04:51:17.006Z,5.60
2022-12-25T04:53:45.206Z,5.60
2022-12-25T04:56:12.860Z,5.50
2022-12-25T04:58:39.840Z,5.50
2022-12-25T05:01:06.961Z,5.50
2022-12-25T05:03:34.166Z,5.50
2022-12-25T05:06:01.939Z,5.50
2022-12-25T05:08:30.834Z,5.50
2022-12-25T05:10:57.959Z,5.50
2022-12-25T05:13:25.366Z,5.50
2022-12-25T05:15:52.683Z,5.50
2022-12-25T05:18:19.742Z,5.50
2022-12-25T05:20:54.095Z,5.50
2022-12-25T05:23:21.976Z,5.60
2022-12-25T05:25:49.151Z,5.60
2022-12-25T05:28:16.288Z,5.60
2022-12-25T05:30:43.451Z,5.50
2022-12-25T05:33:10.491Z,5.50
2022-12-25T05:35:40.790Z,5.50
2022-12-25T05:38:08.144Z,5.50
2022-12-25T05:40:39.528Z,5.50
2022-12-25T05:43:06.940Z,5.60
2022-12-25T05:45:33.997Z,5.60
2022-12-25T05:48:01.041Z,5.50
2022-12-25T05:50:28.041Z,5.40
2022-12-25T05:53:08.272Z,5.40
2022-12-25T05:55:41.020Z,5.40
2022-12-25T05:58:08.523Z,5.40
2022-12-25T06:00:35.891Z,5.40
2022-12-25T06:03:03.256Z,5.40
2022-12-25T06:05:30.496Z,5.40
2022-12-25T06:07:57.564Z,5.40
2022-12-25T06:10:24.866Z,5.50
2022-12-25T06:12:51.784Z,5.50
2022-12-25T06:15:18.852Z,5.60
2022-12-25T06:17:45.859Z,5.50
2022-12-25T06:20:12.921Z,5.60
2022-12-25T06:22:39.896Z,5.50
2022-12-25T06:25:08.784Z,5.50
2022-12-25T06:27:35.891Z,5.60
2022-12-25T06:30:03.688Z,5.60
2022-12-25T06:32:30.637Z,5.60
2022-12-25T06:34:57.884Z,5.60
2022-12-25T06:37:24.884Z,5.60
2022-12-25T06:39:51.872Z,5.60
2022-12-25T06:42:18.995Z,5.70
2022-12-25T06:44:46.004Z,5.70
2022-12-25T06:47:13.423Z,5.70
2022-12-25T06:49:40.399Z,5.70
2022-12-25T06:52:07.472Z,5.70
2022-12-25T06:54:34.576Z,5.80
2022-12-25T06:57:01.826Z,5.80
2022-12-25T06:59:28.964Z,5.80
2022-12-25T07:01:57.720Z,5.80
2022-12-25T07:04:38.146Z,5.90
2022-12-25T07:07:09.350Z,5.90
2022-12-25T07:09:39.034Z,5.90
2022-12-25T07:12:07.531Z,6.00
2022-12-25T07:14:34.861Z,6.00
2022-12-25T07:17:01.871Z,6.00
2022-12-25T07:19:28.973Z,6.00
2022-12-25T07:21:56.361Z,6.00
2022-12-25T07:24:24.040Z,6.00
2022-12-25T07:26:51.847Z,6.10
2022-12-25T07:29:19.770Z,6.10
2022-12-25T07:31:47.182Z,6.10
2022-12-25T07:34:14.176Z,6.10
2022-12-25T07:36:41.104Z,6.10
2022-12-25T07:39:10.032Z,6.10
2022-12-25T07:41:37.526Z,6.10
2022-12-25T07:44:14.636Z,6.10
2022-12-25T07:46:41.702Z,6.10
2022-12-25T07:49:08.732Z,6.00
2022-12-25T07:51:35.709Z,6.00
2022-12-25T07:54:02.677Z,6.10
2022-12-25T07:56:29.777Z,6.10
2022-12-25T07:58:57.081Z,6.10
2022-12-25T08:01:26.851Z,6.10
2022-12-25T08:03:59.907Z,6.10
2022-12-25T08:06:30.615Z,6.20
2022-12-25T08:09:02.648Z,6.10
2022-12-25T08:11:29.692Z,6.20
2022-12-25T08:13:56.978Z,6.20
2022-12-25T08:16:24.471Z,6.30
2022-12-25T08:18:53.416Z,6.40
2022-12-25T08:21:20.520Z,6.50
2022-12-25T08:23:48.356Z,6.60
2022-12-25T08:26:18.709Z,6.60
2022-12-25T08:28:46.269Z,6.70
2022-12-25T08:31:23.050Z,6.80
2022-12-25T08:33:52.297Z,7.00
2022-12-25T08:36:20.203Z,7.20
2022-12-25T08:38:48.079Z,7.30
2022-12-25T08:41:15.754Z,7.50
2022-12-25T08:43:43.482Z,7.80
2022-12-25T08:46:11.041Z,8.10
2022-12-25T08:48:38.100Z,8.20
2022-12-25T08:51:08.318Z,8.10
2022-12-25T08:53:35.303Z,8.00
2022-12-25T08:56:04.593Z,7.90
2022-12-25T08:58:32.104Z,7.90
2022-12-25T09:00:59.824Z,7.80
2022-12-25T09:03:27.552Z,7.80
2022-12-25T09:05:55.184Z,7.70
2022-12-25T09:08:22.897Z,7.50
2022-12-25T09:10:49.942Z,7.50
2022-12-25T09:13:17.910Z,7.50
2022-12-25T09:15:45.168Z,7.50
2022-12-25T09:18:12.087Z,7.50
2022-12-25T09:20:39.203Z,7.30
2022-12-25T09:23:13.272Z,7.40
2022-12-25T09:25:41.012Z,7.40
2022-12-25T09:28:07.949Z,7.40
2022-12-25T09:30:35.101Z,7.40
2022-12-25T09:33:02.045Z,7.50
2022-12-25T09:35:29.195Z,7.60
2022-12-25T09:37:56.259Z,7.50
2022-12-25T09:40:28.448Z,7.40
2022-12-25T09:42:56.724Z,7.40
2022-12-25T09:45:28.597Z,7.60
2022-12-25T09:47:57.439Z,7.70
2022-12-25T09:50:46.594Z,7.80
2022-12-25T09:53:21.975Z,7.70
2022-12-25T09:56:12.789Z,7.70
2022-12-25T09:58:40.084Z,7.80
2022-12-25T10:01:12.776Z,8.00
2022-12-25T10:03:52.963Z,8.10
2022-12-25T10:06:51.290Z,8.10
2022-12-25T10:09:29.019Z,8.20
2022-12-25T10:12:02.349Z,8.50
2022-12-25T10:14:29.399Z,8.80
2022-12-25T10:17:02.186Z,9.20
2022-12-25T10:19:50.682Z,9.60
2022-12-25T10:22:36.986Z,10.20
2022-12-25T10:25:07.065Z,10.60
2022-12-25T10:27:43.710Z,11.00
2022-12-25T10:30:22.295Z,11.20
2022-12-25T10:32:50.539Z,11.40
2022-12-25T10:35:23.187Z,11.60
2022-12-25T10:38:18.046Z,11.70
2022-12-25T10:41:00.189Z,11.70
2022-12-25T10:43:39.950Z,11.90
2022-12-25T10:46:12.467Z,12.00
2022-12-25T10:48:44.307Z,12.10
2022-12-25T10:51:11.530Z,12.20
2022-12-25T10:53:42.546Z,12.40
2022-12-25T10:56:20.141Z,12.50
2022-12-25T10:58:47.237Z,12.30
2022-12-25T11:01:14.507Z,12.40
2022-12-25T11:03:45.717Z,12.30
2022-12-25T11:06:28.224Z,12.20
2022-12-25T11:08:58.397Z,12.40
2022-12-25T11:11:27.046Z,12.30
2022-12-25T11:13:57.676Z,12.10
2022-12-25T11:16:35.515Z,12.10
2022-12-25T11:19:02.832Z,11.90
2022-12-25T11:21:36.869Z,11.80
2022-12-25T11:24:06.951Z,11.90
2022-12-25T11:26:48.027Z,11.90
2022-12-25T11:29:39.911Z,11.60
2022-12-25T11:32:35.306Z,11.30
2022-12-25T11:35:03.472Z,11.20
2022-12-25T11:37:41.415Z,11.30
2022-12-25T11:40:21.896Z,11.30
2022-12-25T11:43:07.832Z,11.20
2022-12-25T11:45:39.491Z,11.30
2022-12-25T11:48:14.238Z,11.30
2022-12-25T11:50:57.209Z,11.30
2022-12-25T11:53:52.574Z,11.20
2022-12-25T11:56:23.664Z,10.70
2022-12-25T11:58:57.193Z,10.50
2022-12-25T12:01:42.421Z,10.50
2022-12-25T12:04:36.930Z,10.50
2022-12-25T12:07:18.416Z,10.30
2022-12-25T12:10:16.344Z,10.30
2022-12-25T12:13:08.695Z,10.40
2022-12-25T12:15:47.988Z,10.50
2022-12-25T12:18:23.177Z,10.40
2022-12-25T12:21:10.362Z,10.40
2022-12-25T12:23:51.412Z,10.50
2022-12-25T12:26:43.391Z,10.80
2022-12-25T12:29:29.003Z,10.60
2022-12-25T12:32:00.852Z,10.50
2022-12-25T12:34:33.043Z,10.40
2022-12-25T12:37:05.583Z,10.20
2022-12-25T12:39:38.344Z,10.10
2022-12-25T12:42:18.654Z,10.10
2022-12-25T12:44:49.022Z,10.00
2022-12-25T12:47:40.520Z,10.00
2022-12-25T12:50:26.107Z,10.00
2022-12-25T12:52:53.451Z,10.00
2022-12-25T12:55:32.394Z,10.00
2022-12-25T12:58:05.381Z,9.90
2022-12-25T13:00:55.778Z,9.90
2022-12-25T13:03:26.005Z,9.90
2022-12-25T13:06:09.024Z,9.80
2022-12-25T13:08:56.989Z,9.80
2022-12-25T13:11:35.408Z,9.60
2022-12-25T13:14:03.740Z,9.60
2022-12-25T13:16:42.681Z,9.60
2022-12-25T13:19:21.855Z,9.50
2022-12-25T13:21:58.069Z,9.40
2022-12-25T13:24:30.306Z,9.30
2022-12-25T13:26:58.290Z,9.30
2022-12-25T13:29:31.095Z,9.30
2022-12-25T13:31:59.885Z,9.30
2022-12-25T13:34:42.073Z,9.30
2022-12-25T13:37:24.654Z,9.30
2022-12-25T13:39:53.364Z,9.30
2022-12-25T13:42:25.969Z,9.20
2022-12-25T13:45:06.495Z,9.20
2022-12-25T13:47:37.017Z,9.20
2022-12-25T13:50:26.987Z,9.20
2022-12-25T13:52:56.312Z,9.20
2022-12-25T13:55:28.425Z,9.20
2022-12-25T13:57:59.956Z,9.20
2022-12-25T14:00:45.542Z,9.10
2022-12-25T14:03:22.070Z,9.10
2022-12-25T14:06:07.841Z,9.00
2022-12-25T14:08:35.933Z,8.90
2022-12-25T14:11:06.042Z,8.90
2022-12-25T14:13:37.763Z,8.80
2022-12-25T14:16:05.430Z,8.80
2022-12-25T14:18:33.474Z,8.80
2022-12-25T14:21:02.480Z,8.70
2022-12-25T14:23:44.223Z,8.70
2022-12-25T14:26:23.268Z,8.60
2022-12-25T14:28:53.778Z,8.60
2022-12-25T14:31:22.057Z,8.70
2022-12-25T14:33:50.277Z,8.70
2022-12-25T14:36:18.223Z,8.60
2022-12-25T14:38:59.715Z,8.50
2022-12-25T14:41:34.235Z,8.50
2022-12-25T14:44:05.818Z,8.40
2022-12-25T14:46:34.167Z,8.30
2022-12-25T14:49:04.367Z,8.30
2022-12-25T14:51:35.300Z,8.30
2022-12-25T14:54:07.915Z,8.30
2022-12-25T14:56:46.791Z,8.30
2022-12-25T14:59:19.691Z,8.20
2022-12-25T15:01:53.516Z,8.10
2022-12-25T15:04:22.450Z,8.10
2022-12-25T15:06:53.818Z,8.10
2022-12-25T15:09:21.495Z,8.10
2022-12-25T15:11:55.939Z,8.00
2022-12-25T15:14:24.724Z,8.00
2022-12-25T15:16:55.410Z,7.90
2022-12-25T15:19:37.285Z,7.90
2022-12-25T15:22:06.281Z,7.80
2022-12-25T15:24:33.333Z,7.70
2022-12-25T15:27:00.860Z,7.70
2022-12-25T15:30:00.206Z,7.60
2022-12-25T15:32:18.930Z,7.60
2022-12-25T15:34:47.294Z,7.60
2022-12-25T15:37:14.690Z,7.60
2022-12-25T15:39:42.362Z,7.60
2022-12-25T15:42:14.656Z,7.60
2022-12-25T15:44:42.653Z,7.60
2022-12-25T15:47:14.640Z,7.60
2022-12-25T15:49:42.340Z,7.60
2022-12-25T15:52:13.048Z,7.60
2022-12-25T15:54:40.343Z,7.50
2022-12-25T15:57:18.160Z,7.40
2022-12-25T15:59:45.276Z,7.40
2022-12-25T16:02:20.745Z,7.30
2022-12-25T16:04:51.269Z,7.30
2022-12-25T16:07:20.943Z,7.20
2022-12-25T16:09:48.513Z,7.10
2022-12-25T16:12:16.191Z,7.00
2022-12-25T16:14:43.521Z,6.90
2022-12-25T16:17:15.802Z,6.90
2022-12-25T16:19:45.017Z,6.80
2022-12-25T16:22:18.677Z,6.70
2022-12-25T16:24:46.037Z,6.80
2022-12-25T16:27:13.153Z,6.70
2022-12-25T16:29:42.250Z,6.70
2022-12-25T16:32:12.122Z,6.70
2022-12-25T16:34:40.717Z,6.60
2022-12-25T16:37:08.136Z,6.60
2022-12-25T16:39:35.319Z,6.60
2022-12-25T16:42:02.560Z,6.60
2022-12-25T16:44:29.832Z,6.60
2022-12-25T16:46:57.069Z,6.50
2022-12-25T16:49:25.564Z,6.50
2022-12-25T16:51:53.178Z,6.50
2022-12-25T16:54:20.280Z,6.50
2022-12-25T16:56:47.239Z,6.40
2022-12-25T16:59:14.235Z,6.40
2022-12-25T17:01:43.586Z,6.30
2022-12-25T17:04:10.783Z,6.30
2022-12-25T17:06:38.551Z,6.20
2022-12-25T17:09:05.935Z,6.20
2022-12-25T17:11:33.522Z,6.20
2022-12-25T17:14:03.929Z,6.20
2022-12-25T17:16:34.299Z,6.20
2022-12-25T17:19:08.284Z,6.20
2022-12-25T17:21:38.633Z,6.20
2022-12-25T17:24:06.826Z,6.20
2022-12-25T17:26:34.064Z,6.20
2022-12-25T17:29:01.250Z,6.10
2022-12-25T17:31:29.345Z,6.10
2022-12-25T17:33:56.831Z,6.00
2022-12-25T17:36:24.356Z,6.00
2022-12-25T17:38:51.808Z,5.90
2022-12-25T17:41:20.266Z,5.80
2022-12-25T17:43:48.275Z,5.70
2022-12-25T17:46:21.121Z,5.60
2022-12-25T17:48:50.329Z,5.60
2022-12-25T17:51:21.605Z,5.40
2022-12-25T17:53:51.690Z,5.30
2022-12-25T17:56:20.163Z,5.30
2022-12-25T17:58:56.078Z,5.20
2022-12-25T18:01:24.669Z,5.20
2022-12-25T18:03:52.936Z,5.20
2022-12-25T18:06:23.301Z,5.10
2022-12-25T18:08:50.901Z,5.10
2022-12-25T18:11:20.903Z,5.10
2022-12-25T18:13:51.979Z,5.00
2022-12-25T18:16:22.431Z,5.00
2022-12-25T18:18:52.523Z,4.90
2022-12-25T18:21:21.901Z,4.90
2022-12-25T18:23:49.989Z,4.90
2022-12-25T18:26:17.745Z,4.90
2022-12-25T18:28:45.176Z,4.90
2022-12-25T18:31:19.074Z,4.90
2022-12-25T18:33:46.847Z,4.80
2022-12-25T18:36:20.355Z,4.80
2022-12-25T18:38:49.589Z,4.80
2022-12-25T18:41:18.018Z,4.80
2022-12-25T18:43:53.583Z,4.80
2022-12-25T18:46:27.086Z,4.80
2022-12-25T18:48:56.040Z,4.80
2022-12-25T18:51:23.409Z,4.80
2022-12-25T18:53:51.332Z,4.80
2022-12-25T18:56:20.339Z,4.90
2022-12-25T18:58:47.872Z,4.90
2022-12-25T19:01:21.804Z,4.80
2022-12-25T19:03:50.432Z,4.90
2022-12-25T19:06:25.212Z,4.80
2022-12-25T19:08:53.006Z,4.80
2022-12-25T19:11:20.874Z,4.80
2022-12-25T19:13:48.345Z,4.70
2022-12-25T19:16:16.759Z,4.70
2022-12-25T19:18:45.641Z,4.70
2022-12-25T19:21:12.817Z,4.70
2022-12-25T19:23:40.308Z,4.70
2022-12-25T19:26:08.647Z,4.70
2022-12-25T19:28:36.586Z,4.70
2022-12-25T19:31:07.504Z,4.70
2022-12-25T19:33:36.125Z,4.70
2022-12-25T19:36:05.650Z,4.70
2022-12-25T19:38:32.742Z,4.70
2022-12-25T19:41:02.766Z,4.60
2022-12-25T19:43:32.688Z,4.60
2022-12-25T19:46:01.915Z,4.60
2022-12-25T19:48:30.318Z,4.60
2022-12-25T19:50:57.827Z,4.60
2022-12-25T19:53:25.409Z,4.60
2022-12-25T19:55:53.596Z,4.60
2022-12-25T19:58:22.043Z,4.50
2022-12-25T20:01:05.227Z,4.50
2022-12-25T20:03:36.461Z,4.50
2022-12-25T20:06:06.789Z,4.50
2022-12-25T20:08:34.120Z,4.50
2022-12-25T20:11:03.491Z,4.50
2022-12-25T20:13:30.596Z,4.40
2022-12-25T20:16:01.690Z,4.40
2022-12-25T20:18:29.375Z,4.40
2022-12-25T20:21:01.708Z,4.40
2022-12-25T20:23:28.917Z,4.30
2022-12-25T20:26:01.039Z,4.30
2022-12-25T20:28:28.892Z,4.30
2022-12-25T20:30:56.585Z,4.20
2022-12-25T20:33:24.719Z,4.10
2022-12-25T20:35:51.954Z,4.10
2022-12-25T20:38:18.918Z,4.00
2022-12-25T20:41:24.394Z,4.00
2022-12-25T20:43:32.958Z,3.90
2022-12-25T20:46:00.102Z,4.00
2022-12-25T20:48:27.244Z,4.00
2022-12-25T20:50:54.342Z,4.00
2022-12-25T20:53:21.387Z,3.90
2022-12-25T20:55:49.901Z,3.90
2022-12-25T20:58:17.899Z,3.90
2022-12-25T21:00:45.338Z,3.90
2022-12-25T21:03:12.737Z,3.90
2022-12-25T21:05:50.148Z,3.90
2022-12-25T21:08:18.918Z,3.80
2022-12-25T21:10:50.700Z,3.80
2022-12-25T21:13:19.693Z,3.80
2022-12-25T21:15:48.607Z,3.80
2022-12-25T21:18:17.859Z,3.80
2022-12-25T21:20:47.692Z,3.70
2022-12-25T21:23:15.335Z,3.70
2022-12-25T21:25:42.662Z,3.70
2022-12-25T21:28:09.763Z,3.60
2022-12-25T21:30:37.064Z,3.60
2022-12-25T21:33:23.043Z,3.60
2022-12-25T21:35:50.089Z,3.50
2022-12-25T21:38:17.591Z,3.50
2022-12-25T21:40:48.091Z,3.40
2022-12-25T21:43:18.538Z,3.40
2022-12-25T21:45:45.720Z,3.40
2022-12-25T21:48:13.416Z,3.30
2022-12-25T21:50:59.086Z,3.30
2022-12-25T21:53:26.204Z,3.20
2022-12-25T21:56:02.060Z,3.20
2022-12-25T21:58:29.480Z,3.20
2022-12-25T22:01:01.887Z,3.20
2022-12-25T22:03:28.972Z,3.10
2022-12-25T22:06:21.485Z,3.10
2022-12-25T22:08:49.007Z,3.10
2022-12-25T22:11:34.622Z,3.10
2022-12-25T22:14:19.963Z,3.20
2022-12-25T22:17:26.134Z,3.20
2022-12-25T22:19:53.121Z,3.20
2022-12-25T22:22:25.702Z,3.20
2022-12-25T22:24:58.460Z,3.20
2022-12-25T22:27:26.548Z,3.30
2022-12-25T22:29:53.615Z,3.30
2022-12-25T22:32:21.382Z,3.30
2022-12-25T22:34:48.605Z,3.30
2022-12-25T22:37:17.729Z,3.30
2022-12-25T22:39:45.680Z,3.30
2022-12-25T22:42:13.315Z,3.30
2022-12-25T22:44:40.790Z,3.30
2022-12-25T22:47:08.774Z,3.30
2022-12-25T22:49:35.778Z,3.30
2022-12-25T22:52:03.534Z,3.30
2022-12-25T22:54:31.832Z,3.30
2022-12-25T22:56:59.585Z,3.30
2022-12-25T22:59:27.091Z,3.30
2022-12-25T23:01:54.453Z,3.30
2022-12-25T23:04:21.891Z,3.30
2022-12-25T23:06:48.980Z,3.30
2022-12-25T23:09:24.443Z,3.30
2022-12-25T23:11:51.867Z,3.40
2022-12-25T23:14:37.512Z,3.40
2022-12-25T23:17:05.434Z,3.40
2022-12-25T23:19:50.914Z,3.50
2022-12-25T23:22:36.820Z,3.50
2022-12-25T23:25:27.693Z,3.60
2022-12-25T23:27:54.840Z,3.60
2022-12-25T23:30:21.916Z,3.60
2022-12-25T23:32:48.867Z,3.60
2022-12-25T23:35:15.981Z,3.70
2022-12-25T23:37:42.976Z,3.70
2022-12-25T23:40:10.504Z,3.70
2022-12-25T23:42:37.604Z,3.70
2022-12-25T23:45:04.961Z,3.70
2022-12-25T23:47:31.961Z,3.70
2022-12-25T23:49:58.916Z,3.70
2022-12-25T23:52:25.937Z,3.70
2022-12-25T23:54:53.061Z,3.70
2022-12-25T23:57:20.127Z,3.70
2022-12-25T23:59:47.242Z,3.70
